createdAt,value
2022-09-06T00:02:20.185Z,23.00
2022-09-06T00:04:51.241Z,23.00
2022-09-06T00:07:21.453Z,23.00
2022-09-06T00:09:51.679Z,22.90
2022-09-06T00:12:22.005Z,22.90
2022-09-06T00:14:52.565Z,23.00
2022-09-06T00:17:25.781Z,22.90
2022-09-06T00:19:55.992Z,22.60
2022-09-06T00:22:26.235Z,22.50
2022-09-06T00:24:58.650Z,22.40
2022-09-06T00:27:28.868Z,22.50
2022-09-06T00:29:59.078Z,22.60
2022-09-06T00:32:31.944Z,22.70
2022-09-06T00:35:02.089Z,22.80
2022-09-06T00:37:32.303Z,22.80
2022-09-06T00:40:02.564Z,22.60
2022-09-06T00:42:32.945Z,22.50
2022-09-06T00:45:03.591Z,22.40
2022-09-06T00:47:38.904Z,22.20
2022-09-06T00:50:12.113Z,22.00
2022-09-06T00:52:44.605Z,21.80
2022-09-06T00:55:15.202Z,21.60
2022-09-06T00:57:46.591Z,21.60
2022-09-06T01:00:18.532Z,21.50
2022-09-06T01:02:52.706Z,21.50
2022-09-06T01:05:31.777Z,21.40
2022-09-06T01:08:18.888Z,21.30
2022-09-06T01:11:26.224Z,21.30
2022-09-06T01:14:12.852Z,21.20
2022-09-06T01:16:52.120Z,21.10
2022-09-06T01:20:24.144Z,21.10
2022-09-06T01:23:41.163Z,21.10
2022-09-06T01:26:49.360Z,20.90
2022-09-06T01:29:31.815Z,20.80
2022-09-06T01:32:12.525Z,20.70
2022-09-06T01:34:57.295Z,20.80
2022-09-06T01:37:28.887Z,20.70
2022-09-06T01:39:59.226Z,20.70
2022-09-06T01:42:33.628Z,20.70
2022-09-06T01:45:12.316Z,20.60
2022-09-06T01:47:57.711Z,20.50
2022-09-06T01:51:16.825Z,20.40
2022-09-06T01:54:09.212Z,20.40
2022-09-06T01:56:55.323Z,20.40
2022-09-06T02:00:12.505Z,20.30
2022-09-06T02:03:02.937Z,20.40
2022-09-06T02:05:40.077Z,20.30
2022-09-06T02:08:15.805Z,20.40
2022-09-06T02:10:53.643Z,20.50
2022-09-06T02:13:29.025Z,20.50
2022-09-06T02:16:04.725Z,20.50
2022-09-06T02:18:47.215Z,20.50
2022-09-06T02:21:24.223Z,20.50
2022-09-06T02:23:59.553Z,20.50
2022-09-06T02:26:35.613Z,20.50
2022-09-06T02:29:06.040Z,20.60
2022-09-06T02:31:41.821Z,20.60
2022-09-06T02:34:20.708Z,20.70
2022-09-06T02:36:52.451Z,20.70
2022-09-06T02:39:22.880Z,20.60
2022-09-06T02:41:53.693Z,20.60
2022-09-06T02:44:25.140Z,20.50
2022-09-06T02:46:57.255Z,20.50
2022-09-06T02:49:30.562Z,20.50
2022-09-06T02:52:01.077Z,20.50
2022-09-06T02:54:31.259Z,20.30
2022-09-06T02:57:01.442Z,20.20
2022-09-06T02:59:32.486Z,20.20
2022-09-06T03:02:02.787Z,20.10
2022-09-06T03:04:35.656Z,20.10
2022-09-06T03:07:05.854Z,20.10
2022-09-06T03:09:36.104Z,20.00
2022-09-06T03:12:06.784Z,19.90
2022-09-06T03:14:41.350Z,19.90
2022-09-06T03:17:11.496Z,19.80
2022-09-06T03:19:44.326Z,19.80
2022-09-06T03:22:14.565Z,19.80
2022-09-06T03:24:44.813Z,19.70
2022-09-06T03:27:14.972Z,19.80
2022-09-06T03:29:45.193Z,19.70
2022-09-06T03:32:15.375Z,19.70
2022-09-06T03:34:48.199Z,19.60
2022-09-06T03:37:21.663Z,19.70
2022-09-06T03:39:51.920Z,19.60
2022-09-06T03:42:22.139Z,19.50
2022-09-06T03:44:52.356Z,19.50
2022-09-06T03:47:22.880Z,19.40
2022-09-06T03:49:55.660Z,19.30
2022-09-06T03:52:26.182Z,19.20
2022-09-06T03:54:56.905Z,19.10
2022-09-06T03:57:27.539Z,19.10
2022-09-06T03:59:57.748Z,19.00
2022-09-06T04:02:28.039Z,19.00
2022-09-06T04:05:00.811Z,19.00
2022-09-06T04:07:31.008Z,19.00
2022-09-06T04:10:01.344Z,19.00
2022-09-06T04:12:31.648Z,18.90
2022-09-06T04:15:01.843Z,18.90
2022-09-06T04:17:32.558Z,18.80
2022-09-06T04:20:07.939Z,18.70
2022-09-06T04:22:38.129Z,18.70
2022-09-06T04:25:11.277Z,18.60
2022-09-06T04:27:43.915Z,18.60
2022-09-06T04:30:14.675Z,18.60
2022-09-06T04:32:44.873Z,18.60
2022-09-06T04:35:18.011Z,18.60
2022-09-06T04:37:48.807Z,18.50
2022-09-06T04:40:19.172Z,18.60
2022-09-06T04:42:50.745Z,18.50
2022-09-06T04:45:21.011Z,18.50
2022-09-06T04:47:51.615Z,18.50
2022-09-06T04:50:24.432Z,18.50
2022-09-06T04:52:54.630Z,18.60
2022-09-06T04:55:26.437Z,18.60
2022-09-06T04:57:58.516Z,18.50
2022-09-06T05:00:29.152Z,18.50
2022-09-06T05:02:59.435Z,18.40
2022-09-06T05:05:32.199Z,18.40
2022-09-06T05:08:02.411Z,18.50
2022-09-06T05:10:32.607Z,18.30
2022-09-06T05:13:02.837Z,18.40
2022-09-06T05:15:33.675Z,18.30
2022-09-06T05:18:09.413Z,18.30
2022-09-06T05:20:46.700Z,18.20
2022-09-06T05:23:16.950Z,18.20
2022-09-06T05:25:47.135Z,18.20
2022-09-06T05:28:18.284Z,18.30
2022-09-06T05:30:51.852Z,18.30
2022-09-06T05:33:32.847Z,18.40
2022-09-06T05:36:09.926Z,18.50
2022-09-06T05:38:40.126Z,18.60
2022-09-06T05:41:10.329Z,18.70
2022-09-06T05:43:40.535Z,18.80
2022-09-06T05:46:12.128Z,18.80
2022-09-06T05:48:42.762Z,18.80
2022-09-06T05:51:16.890Z,18.80
2022-09-06T05:53:48.610Z,18.70
2022-09-06T05:56:22.657Z,18.80
2022-09-06T05:58:53.067Z,18.80
2022-09-06T06:01:26.848Z,18.90
2022-09-06T06:04:00.435Z,19.10
2022-09-06T06:06:35.267Z,19.10
2022-09-06T06:09:05.594Z,19.20
2022-09-06T06:11:35.903Z,19.40
2022-09-06T06:14:06.725Z,19.50
2022-09-06T06:16:37.481Z,19.60
2022-09-06T06:19:07.855Z,19.60
2022-09-06T06:21:40.848Z,19.70
2022-09-06T06:24:11.656Z,19.80
2022-09-06T06:26:42.048Z,19.90
2022-09-06T06:29:12.320Z,20.00
2022-09-06T06:31:42.656Z,20.20
2022-09-06T06:34:12.890Z,20.40
2022-09-06T06:36:45.670Z,20.50
2022-09-06T06:39:16.036Z,20.70
2022-09-06T06:41:46.239Z,20.80
2022-09-06T06:44:16.466Z,20.90
2022-09-06T06:46:46.694Z,21.00
2022-09-06T06:49:16.904Z,21.10
2022-09-06T06:51:49.693Z,21.30
2022-09-06T06:54:19.976Z,21.50
2022-09-06T06:56:50.249Z,21.60
2022-09-06T06:59:23.507Z,21.70
2022-09-06T07:01:56.109Z,21.80
2022-09-06T07:04:26.416Z,21.90
2022-09-06T07:12:40.753Z,22.20
2022-09-06T07:15:12.508Z,22.40
2022-09-06T07:17:43.636Z,22.50
2022-09-06T07:20:14.938Z,22.70
2022-09-06T07:22:48.895Z,23.80
2022-09-06T07:25:21.579Z,26.50
2022-09-06T07:27:52.120Z,29.00
2022-09-06T07:30:22.759Z,30.60
2022-09-06T07:32:53.020Z,32.20
2022-09-06T07:35:23.312Z,33.10
2022-09-06T07:38:01.532Z,34.30
2022-09-06T07:40:33.656Z,35.00
2022-09-06T07:43:03.871Z,35.40
2022-09-06T07:45:35.671Z,36.00
2022-09-06T07:48:07.237Z,36.40
2022-09-06T07:50:55.898Z,37.10
2022-09-06T07:53:31.276Z,37.40
2022-09-06T07:56:03.629Z,37.90
2022-09-06T07:58:38.058Z,37.20
2022-09-06T08:01:19.727Z,38.20
2022-09-06T08:03:51.113Z,39.20
2022-09-06T08:06:24.919Z,38.90
2022-09-06T08:08:59.346Z,38.70
2022-09-06T08:11:33.111Z,38.60
2022-09-06T08:14:05.715Z,38.40
2022-09-06T08:16:39.398Z,38.30
2022-09-06T08:19:12.968Z,39.10
2022-09-06T08:21:46.271Z,39.20
2022-09-06T08:24:19.100Z,39.30
2022-09-06T08:26:50.308Z,39.00
2022-09-06T08:29:21.681Z,39.10
2022-09-06T08:31:52.043Z,39.00
2022-09-06T08:34:22.317Z,38.70
2022-09-06T08:36:52.523Z,38.10
2022-09-06T08:39:26.012Z,37.60
2022-09-06T08:42:03.756Z,36.70
2022-09-06T08:44:58.604Z,37.00
2022-09-06T08:47:29.231Z,37.60
2022-09-06T08:50:06.901Z,38.70
2022-09-06T08:53:16.271Z,39.50
2022-09-06T08:55:56.971Z,40.20
2022-09-06T08:58:48.497Z,39.30
2022-09-06T09:01:26.090Z,38.60
2022-09-06T09:04:01.063Z,39.40
2022-09-06T09:06:35.330Z,39.60
2022-09-06T09:09:09.674Z,39.30
2022-09-06T09:11:49.032Z,38.40
2022-09-06T09:14:25.115Z,38.70
2022-09-06T09:17:00.652Z,40.00
2022-09-06T09:19:37.913Z,40.60
2022-09-06T09:22:08.235Z,39.70
2022-09-06T09:24:42.104Z,39.20
2022-09-06T09:27:19.161Z,39.70
2022-09-06T09:32:54.071Z,41.30
2022-09-06T09:35:36.668Z,39.90
2022-09-06T09:38:12.418Z,40.60
2022-09-06T09:40:52.103Z,40.00
2022-09-06T09:43:28.212Z,38.60
2022-09-06T09:46:21.509Z,38.40
2022-09-06T09:49:11.129Z,39.30
2022-09-06T09:51:44.190Z,39.40
2022-09-06T09:54:17.247Z,40.70
2022-09-06T09:56:53.116Z,41.90
2022-09-06T09:59:33.238Z,40.30
2022-09-06T10:02:19.085Z,40.50
2022-09-06T10:04:53.678Z,39.40
2022-09-06T10:07:27.188Z,39.50
2022-09-06T10:10:04.925Z,38.50
2022-09-06T10:12:38.876Z,38.80
2022-09-06T10:15:15.245Z,38.80
2022-09-06T10:17:54.069Z,39.30
2022-09-06T10:20:32.843Z,39.20
2022-09-06T10:23:13.371Z,38.90
2022-09-06T10:25:50.009Z,38.50
2022-09-06T10:28:37.123Z,37.00
2022-09-06T10:31:41.698Z,37.50
2022-09-06T10:34:47.470Z,38.80
2022-09-06T10:37:51.312Z,39.30
2022-09-06T10:40:34.767Z,39.30
2022-09-06T10:43:10.833Z,38.50
2022-09-06T10:45:49.704Z,38.20
2022-09-06T10:48:29.578Z,38.50
2022-09-06T10:51:06.728Z,38.60
2022-09-06T10:53:49.597Z,38.10
2022-09-06T10:56:27.507Z,39.10
2022-09-06T11:02:15.643Z,38.10
2022-09-06T11:10:44.270Z,38.10
2022-09-06T11:13:19.853Z,39.00
2022-09-06T11:15:56.743Z,39.10
2022-09-06T11:18:36.664Z,38.40
2022-09-06T11:21:45.785Z,37.30
2022-09-06T11:24:19.364Z,36.40
2022-09-06T11:27:07.499Z,35.70
2022-09-06T11:29:44.520Z,35.20
2022-09-06T11:32:40.184Z,34.80
2022-09-06T11:35:23.246Z,34.50
2022-09-06T11:38:04.192Z,34.20
2022-09-06T11:40:44.012Z,34.30
2022-09-06T11:43:39.836Z,34.30
2022-09-06T11:46:10.150Z,33.50
2022-09-06T11:49:05.208Z,33.60
2022-09-06T11:51:40.572Z,34.10
2022-09-06T11:54:45.820Z,34.90
2022-09-06T11:57:24.413Z,35.00
2022-09-06T12:00:06.954Z,34.30
2022-09-06T12:02:43.960Z,33.90
2022-09-06T12:05:29.422Z,33.30
2022-09-06T12:08:28.161Z,32.70
2022-09-06T12:11:36.198Z,32.30
2022-09-06T12:14:11.088Z,32.00
2022-09-06T12:17:29.696Z,32.40
2022-09-06T12:20:08.056Z,32.80
2022-09-06T12:23:08.457Z,33.30
2022-09-06T12:25:59.060Z,33.20
2022-09-06T12:28:52.161Z,33.40
2022-09-06T12:31:53.568Z,33.30
2022-09-06T12:34:29.649Z,32.90
2022-09-06T12:37:07.143Z,32.80
2022-09-06T12:39:38.428Z,32.70
2022-09-06T12:42:15.496Z,32.70
2022-09-06T12:44:57.184Z,32.70
2022-09-06T12:47:33.813Z,33.10
2022-09-06T12:50:19.882Z,33.00
2022-09-06T12:53:22.759Z,32.90
2022-09-06T12:56:12.430Z,33.00
2022-09-06T12:58:43.567Z,33.10
2022-09-06T13:01:27.030Z,33.00
2022-09-06T13:04:06.427Z,32.90
2022-09-06T13:06:43.311Z,33.00
2022-09-06T13:09:21.744Z,33.20
2022-09-06T13:11:56.092Z,33.30
2022-09-06T13:14:32.380Z,33.30
2022-09-06T13:17:05.194Z,33.30
2022-09-06T13:19:39.821Z,33.50
2022-09-06T13:22:13.091Z,33.00
2022-09-06T13:24:49.915Z,33.10
2022-09-06T13:27:28.600Z,33.50
2022-09-06T13:30:04.834Z,33.80
2022-09-06T13:32:40.216Z,34.00
2022-09-06T13:35:10.924Z,33.80
2022-09-06T13:37:41.832Z,33.70
2022-09-06T13:41:09.731Z,33.80
2022-09-06T13:43:47.702Z,33.70
2022-09-06T13:46:17.931Z,33.30
2022-09-06T13:48:50.643Z,33.20
2022-09-06T13:51:20.963Z,33.00
2022-09-06T13:53:51.412Z,33.20
2022-09-06T13:56:21.653Z,33.50
2022-09-06T13:58:51.955Z,33.50
2022-09-06T14:01:22.121Z,33.60
2022-09-06T14:03:55.540Z,33.40
2022-09-06T14:06:25.942Z,33.20
2022-09-06T14:09:06.827Z,33.10
2022-09-06T14:11:37.863Z,33.20
2022-09-06T14:14:09.768Z,33.60
2022-09-06T14:16:40.167Z,33.30
2022-09-06T14:19:13.223Z,33.30
2022-09-06T14:21:44.155Z,33.50
2022-09-06T14:24:14.491Z,33.50
2022-09-06T14:26:44.773Z,33.30
2022-09-06T14:29:14.891Z,33.20
2022-09-06T14:31:45.188Z,33.10
2022-09-06T14:34:17.903Z,33.10
2022-09-06T14:36:48.072Z,32.90
2022-09-06T14:39:18.260Z,32.90
2022-09-06T14:41:48.563Z,32.90
2022-09-06T14:44:18.842Z,33.10
2022-09-06T14:46:53.508Z,33.20
2022-09-06T14:49:34.920Z,33.30
2022-09-06T14:52:05.801Z,33.40
2022-09-06T14:54:36.064Z,33.30
2022-09-06T14:57:06.700Z,33.10
2022-09-06T14:59:37.091Z,33.10
2022-09-06T15:02:07.547Z,33.00
2022-09-06T15:04:40.535Z,32.70
2022-09-06T15:07:11.522Z,32.60
2022-09-06T15:09:42.660Z,32.70
2022-09-06T15:12:15.060Z,32.80
2022-09-06T15:14:45.412Z,32.60
2022-09-06T15:17:16.088Z,32.50
2022-09-06T15:19:48.967Z,32.40
2022-09-06T15:22:19.273Z,32.40
2022-09-06T15:24:50.410Z,32.40
2022-09-06T15:27:24.772Z,32.60
2022-09-06T15:29:55.053Z,32.40
2022-09-06T15:32:25.468Z,32.20
2022-09-06T15:35:04.269Z,32.10
2022-09-06T15:37:35.032Z,32.10
2022-09-06T15:40:07.397Z,32.10
2022-09-06T15:42:38.029Z,32.00
2022-09-06T15:45:11.488Z,31.90
2022-09-06T15:47:42.193Z,31.80
2022-09-06T15:50:25.279Z,31.80
2022-09-06T15:53:04.876Z,31.80
2022-09-06T15:55:47.531Z,31.80
2022-09-06T15:58:18.036Z,31.40
2022-09-06T16:00:53.545Z,31.10
2022-09-06T16:03:24.384Z,30.80
2022-09-06T16:08:49.458Z,30.20
2022-09-06T16:11:23.371Z,30.10
2022-09-06T16:13:53.783Z,30.20
2022-09-06T16:16:26.742Z,30.20
2022-09-06T16:18:57.136Z,30.10
2022-09-06T16:21:33.164Z,30.10
2022-09-06T16:24:05.611Z,30.00
2022-09-06T16:26:39.011Z,30.10
2022-09-06T16:29:11.343Z,30.00
2022-09-06T16:31:41.648Z,30.00
2022-09-06T16:34:15.405Z,30.00
2022-09-06T16:36:50.152Z,29.90
2022-09-06T16:39:20.463Z,29.90
2022-09-06T16:41:50.799Z,29.90
2022-09-06T16:44:22.383Z,29.70
2022-09-06T16:46:56.912Z,29.60
2022-09-06T16:49:27.444Z,29.50
2022-09-06T16:52:00.541Z,29.40
2022-09-06T16:54:30.845Z,29.30
2022-09-06T16:57:01.210Z,29.20
2022-09-06T16:59:33.697Z,29.10
2022-09-06T17:02:04.041Z,29.10
2022-09-06T17:04:34.420Z,29.00
2022-09-06T17:07:07.943Z,29.00
2022-09-06T17:09:38.260Z,28.80
2022-09-06T17:12:09.320Z,28.70
2022-09-06T17:14:39.662Z,28.60
2022-09-06T17:17:07.650Z,28.60
2022-09-06T17:19:40.688Z,28.50
2022-09-06T17:22:15.586Z,28.30
2022-09-06T17:24:46.086Z,28.30
2022-09-06T17:27:16.443Z,28.20
2022-09-06T17:29:46.747Z,28.10
2022-09-06T17:32:17.026Z,28.10
2022-09-06T17:34:47.358Z,28.00
2022-09-06T17:37:20.263Z,28.00
2022-09-06T17:39:53.619Z,27.90
2022-09-06T17:42:24.705Z,27.90
2022-09-06T17:44:57.040Z,27.80
2022-09-06T17:47:27.401Z,27.80
2022-09-06T17:49:57.689Z,27.80
2022-09-06T17:52:30.530Z,27.80
2022-09-06T17:55:01.091Z,27.80
2022-09-06T17:57:31.355Z,27.70
2022-09-06T18:00:02.286Z,27.60
2022-09-06T18:02:32.601Z,27.60
2022-09-06T18:05:02.925Z,27.60
2022-09-06T18:07:36.071Z,27.50
2022-09-06T18:10:07.519Z,27.50
2022-09-06T18:12:39.068Z,27.40
2022-09-06T18:15:13.146Z,27.30
2022-09-06T18:17:43.951Z,27.30
2022-09-06T18:20:14.399Z,27.30
2022-09-06T18:22:47.278Z,27.20
2022-09-06T18:25:17.838Z,27.20
2022-09-06T18:27:51.305Z,27.10
2022-09-06T18:30:22.664Z,27.10
2022-09-06T18:32:53.768Z,27.00
2022-09-06T18:35:24.090Z,26.90
2022-09-06T18:37:58.564Z,26.90
2022-09-06T18:40:28.894Z,26.70
2022-09-06T18:42:59.337Z,26.60
2022-09-06T18:45:29.671Z,26.50
2022-09-06T18:47:59.996Z,26.40
2022-09-06T18:50:31.036Z,26.30
2022-09-06T18:53:06.716Z,26.20
2022-09-06T18:55:42.796Z,26.10
2022-09-06T18:58:14.191Z,26.00
2022-09-06T19:00:44.533Z,26.00
2022-09-06T19:03:14.800Z,26.00
2022-09-06T19:05:45.128Z,26.00
2022-09-06T19:08:19.124Z,25.90
2022-09-06T19:10:49.421Z,25.90
2022-09-06T19:13:22.252Z,25.80
2022-09-06T19:15:52.645Z,25.80
2022-09-06T19:18:23.036Z,25.70
2022-09-06T19:21:00.412Z,25.70
2022-09-06T19:23:34.204Z,25.60
2022-09-06T19:26:07.865Z,25.50
2022-09-06T19:28:39.611Z,25.50
2022-09-06T19:31:13.588Z,25.40
2022-09-06T19:33:46.948Z,25.40
2022-09-06T19:36:23.191Z,25.30
2022-09-06T19:39:04.359Z,25.40
2022-09-06T19:41:37.215Z,25.20
2022-09-06T19:44:09.032Z,25.00
2022-09-06T19:46:45.454Z,24.80
2022-09-06T19:49:17.215Z,24.70
2022-09-06T19:51:49.036Z,24.70
2022-09-06T19:54:22.773Z,24.70
2022-09-06T19:56:53.965Z,24.60
2022-09-06T19:59:24.224Z,24.60
2022-09-06T20:01:54.587Z,24.60
2022-09-06T20:04:27.115Z,24.50
2022-09-06T20:06:57.762Z,23.90
2022-09-06T20:09:30.763Z,23.40
2022-09-06T20:12:03.996Z,23.10
2022-09-06T20:14:34.318Z,22.70
2022-09-06T20:17:29.712Z,21.60
2022-09-06T20:19:55.080Z,20.30
2022-09-06T20:22:26.103Z,19.60
2022-09-06T20:24:59.806Z,19.40
2022-09-06T20:27:30.202Z,19.20
2022-09-06T20:30:01.587Z,19.10
2022-09-06T20:32:32.047Z,19.10
2022-09-06T20:35:04.808Z,19.10
2022-09-06T20:37:38.668Z,19.30
2022-09-06T20:40:17.892Z,19.40
2022-09-06T20:42:48.437Z,19.50
2022-09-06T20:45:22.675Z,19.50
2022-09-06T20:47:53.027Z,19.60
2022-09-06T20:50:23.332Z,19.70
2022-09-06T20:52:53.608Z,19.70
2022-09-06T20:55:26.483Z,19.70
2022-09-06T20:58:00.130Z,19.60
2022-09-06T21:00:30.555Z,19.60
2022-09-06T21:03:00.932Z,19.60
2022-09-06T21:05:31.312Z,19.50
2022-09-06T21:08:01.633Z,19.40
2022-09-06T21:10:34.884Z,19.40
2022-09-06T21:13:06.413Z,19.50
2022-09-06T21:15:37.003Z,19.40
2022-09-06T21:18:08.248Z,19.50
2022-09-06T21:20:39.030Z,19.50
2022-09-06T21:23:09.619Z,19.60
2022-09-06T21:25:42.472Z,19.70
2022-09-06T21:28:15.241Z,19.70
2022-09-06T21:30:45.495Z,19.80
2022-09-06T21:33:15.780Z,19.80
2022-09-06T21:35:46.058Z,19.90
2022-09-06T21:38:16.358Z,19.80
2022-09-06T21:40:49.431Z,19.80
2022-09-06T21:43:19.709Z,19.80
2022-09-06T21:45:49.945Z,19.80
2022-09-06T21:48:20.498Z,19.80
2022-09-06T21:50:51.389Z,19.70
2022-09-06T21:53:23.718Z,19.80
2022-09-06T21:56:02.185Z,19.90
2022-09-06T21:58:32.934Z,19.90
2022-09-06T22:01:04.988Z,19.90
2022-09-06T22:03:40.317Z,19.80
2022-09-06T22:06:17.462Z,19.80
2022-09-06T22:08:49.045Z,19.80
2022-09-06T22:11:28.424Z,19.80
2022-09-06T22:14:02.608Z,19.80
2022-09-06T22:16:35.438Z,19.90
2022-09-06T22:19:06.778Z,20.10
2022-09-06T22:21:38.703Z,20.00
2022-09-06T22:24:12.670Z,19.90
2022-09-06T22:26:45.660Z,19.90
2022-09-06T22:29:16.717Z,19.80
2022-09-06T22:31:47.098Z,19.70
2022-09-06T22:34:18.102Z,19.70
2022-09-06T22:36:48.607Z,19.70
2022-09-06T22:39:19.600Z,19.70
2022-09-06T22:41:52.480Z,19.70
2022-09-06T22:44:22.810Z,19.70
2022-09-06T22:46:53.115Z,19.70
2022-09-06T22:49:23.524Z,19.80
2022-09-06T22:51:53.925Z,19.80
2022-09-06T22:54:24.172Z,19.80
2022-09-06T22:56:59.099Z,19.80
2022-09-06T22:59:29.364Z,19.80
2022-09-06T23:01:59.695Z,19.80
2022-09-06T23:04:30.267Z,19.80
2022-09-06T23:07:05.020Z,19.90
2022-09-06T23:09:35.303Z,19.90
2022-09-06T23:12:08.821Z,20.10
2022-09-06T23:14:39.097Z,20.20
2022-09-06T23:17:10.473Z,20.30
2022-09-06T23:19:40.749Z,20.40
2022-09-06T23:22:11.822Z,20.50
2022-09-06T23:24:43.281Z,20.40
2022-09-06T23:27:16.303Z,20.10
2022-09-06T23:29:46.588Z,19.90
2022-09-06T23:32:16.907Z,19.70
2022-09-06T23:34:47.165Z,19.50
2022-09-06T23:37:17.460Z,19.30
2022-09-06T23:39:48.184Z,19.30
2022-09-06T23:42:25.362Z,19.20
